Terminal Aerodrome Forecast
Issued by NWS

Home | Current Version | Previous Version | Graphics & Text | Print | Product List | Glossary On
Versions: 1 2 3 4 5 6 7 8 9 10 11 12 13 14 15 16 17 18 19 20 21 22 23 24
000
FTUS43 KLOT 240431 AAB
TAFGYY
TAF AMD
KGYY 240431Z 2405/2424 36010KT P6SM FEW015 SCT040
     FM240600 02014G23KT P6SM BKN015
     FM241200 02011G17KT P6SM SCT015 BKN020
     FM241800 02012KT P6SM SCT040=

USA.gov is the U.S. government's official web portal to all federal, state and local government web resources and services.